createdAt,value
2018-04-07T00:00:48.528Z,11.40
2018-04-07T00:03:15.935Z,11.90
2018-04-07T00:05:42.471Z,12.82
2018-04-07T00:08:09.070Z,11.98
2018-04-07T00:10:37.193Z,10.05
2018-04-07T00:13:03.686Z,9.10
2018-04-07T00:15:31.045Z,12.00
2018-04-07T00:17:57.551Z,11.17
2018-04-07T00:20:24.792Z,11.13
2018-04-07T00:22:51.243Z,11.43
2018-04-07T00:25:18.454Z,10.52
2018-04-07T00:27:44.944Z,10.40
2018-04-07T00:30:11.568Z,11.23
2018-04-07T00:32:38.819Z,11.25
2018-04-07T00:35:06.026Z,9.82
2018-04-07T00:37:32.560Z,11.00
2018-04-07T00:39:59.024Z,10.30
2018-04-07T00:42:25.529Z,12.93
2018-04-07T00:44:52.019Z,12.40
2018-04-07T00:47:18.483Z,8.80
2018-04-07T00:49:45.059Z,11.55
2018-04-07T00:52:11.584Z,10.60
2018-04-07T00:54:38.164Z,9.43
2018-04-07T00:57:04.622Z,10.35
2018-04-07T00:59:31.170Z,9.98
2018-04-07T01:01:58.421Z,9.68
2018-04-07T01:04:24.902Z,9.27
2018-04-07T01:06:52.086Z,10.43
2018-04-07T01:09:18.592Z,10.48
2018-04-07T01:11:45.794Z,13.68
2018-04-07T01:14:12.313Z,14.48
2018-04-07T01:16:38.842Z,12.43
2018-04-07T01:19:05.416Z,11.25
2018-04-07T01:21:31.938Z,9.57
2018-04-07T01:23:58.512Z,11.30
2018-04-07T01:26:25.856Z,8.57
2018-04-07T01:28:52.341Z,10.63
2018-04-07T01:31:18.830Z,9.80
2018-04-07T01:33:46.084Z,10.82
2018-04-07T01:36:12.659Z,10.77
2018-04-07T01:38:39.156Z,9.30
2018-04-07T01:41:06.359Z,10.75
2018-04-07T01:43:32.862Z,14.35
2018-04-07T01:45:59.454Z,12.33
2018-04-07T01:48:25.907Z,11.05
2018-04-07T01:50:53.106Z,10.60
2018-04-07T01:53:19.583Z,10.13
2018-04-07T01:55:46.054Z,13.30
2018-04-07T01:58:13.355Z,10.60
2018-04-07T02:00:39.862Z,10.07
2018-04-07T02:03:06.318Z,10.80
2018-04-07T02:05:32.825Z,10.50
2018-04-07T02:07:59.303Z,12.13
2018-04-07T02:10:25.819Z,10.43
2018-04-07T02:12:52.411Z,13.88
2018-04-07T02:15:18.927Z,10.98
2018-04-07T02:17:45.454Z,13.85
2018-04-07T02:20:11.881Z,11.57
2018-04-07T02:22:38.311Z,10.03
2018-04-07T02:25:04.835Z,12.32
2018-04-07T02:27:31.259Z,11.60
2018-04-07T02:29:57.775Z,9.95
2018-04-07T02:32:24.273Z,11.70
2018-04-07T02:34:51.454Z,10.55
2018-04-07T02:37:17.976Z,9.20
2018-04-07T02:39:44.451Z,11.93
2018-04-07T02:42:10.977Z,10.57
2018-04-07T02:44:37.494Z,13.75
2018-04-07T02:47:03.982Z,14.10
2018-04-07T02:49:31.242Z,12.37
2018-04-07T02:51:57.715Z,11.98
2018-04-07T02:54:24.168Z,12.40
2018-04-07T02:56:50.659Z,12.82
2018-04-07T02:59:17.251Z,14.35
2018-04-07T03:01:43.716Z,13.13
2018-04-07T03:04:10.202Z,13.60
2018-04-07T03:06:36.683Z,13.97
2018-04-07T03:09:03.219Z,10.95
2018-04-07T03:11:30.431Z,11.38
2018-04-07T03:13:56.887Z,11.90
2018-04-07T03:16:23.375Z,12.10
2018-04-07T03:18:49.874Z,11.93
2018-04-07T03:21:17.100Z,14.23
2018-04-07T03:23:43.579Z,13.32
2018-04-07T03:26:10.036Z,11.65
2018-04-07T03:28:36.507Z,12.32
2018-04-07T03:31:02.986Z,13.20
2018-04-07T03:33:29.464Z,13.05
2018-04-07T03:35:55.964Z,11.95
2018-04-07T03:38:22.434Z,11.80
2018-04-07T03:40:48.908Z,13.18
2018-04-07T03:43:15.370Z,15.85
2018-04-07T03:45:41.831Z,13.55
2018-04-07T03:48:08.331Z,12.25
2018-04-07T03:50:34.915Z,15.82
2018-04-07T03:53:01.407Z,11.27
2018-04-07T03:55:27.854Z,12.55
2018-04-07T03:57:54.296Z,14.38
2018-04-07T04:00:20.935Z,11.95
2018-04-07T04:02:47.436Z,14.98
2018-04-07T04:05:14.023Z,14.35
2018-04-07T04:07:41.319Z,12.07
2018-04-07T04:10:07.819Z,14.40
2018-04-07T04:12:35.019Z,14.90
2018-04-07T04:15:01.601Z,14.45
2018-04-07T04:17:28.066Z,14.93
2018-04-07T04:19:54.584Z,17.85
2018-04-07T04:22:21.874Z,14.85
2018-04-07T04:24:48.370Z,15.00
2018-04-07T04:27:15.557Z,15.63
2018-04-07T04:29:42.099Z,15.45
2018-04-07T04:32:08.587Z,13.20
2018-04-07T04:34:35.829Z,15.02
2018-04-07T04:37:02.385Z,13.52
2018-04-07T04:39:29.596Z,14.52
2018-04-07T04:41:56.058Z,13.40
2018-04-07T04:44:23.410Z,17.80
2018-04-07T04:46:49.920Z,15.55
2018-04-07T04:49:16.352Z,15.07
2018-04-07T04:51:42.854Z,14.07
2018-04-07T04:54:09.359Z,12.57
2018-04-07T04:56:36.866Z,16.55
2018-04-07T04:59:03.316Z,13.57
2018-04-07T05:01:29.765Z,13.23
2018-04-07T05:03:56.242Z,17.05
2018-04-07T05:06:22.695Z,12.35
2018-04-07T05:08:49.295Z,9.82
2018-04-07T05:11:15.755Z,15.18
2018-04-07T05:13:42.230Z,11.85
2018-04-07T05:16:08.722Z,12.57
2018-04-07T05:18:35.307Z,12.70
2018-04-07T05:21:02.579Z,12.37
2018-04-07T05:23:29.105Z,12.18
2018-04-07T05:25:56.306Z,10.90
2018-04-07T05:28:22.878Z,11.80
2018-04-07T05:30:49.682Z,13.07
2018-04-07T05:33:16.222Z,12.33
2018-04-07T05:35:42.767Z,12.00
2018-04-07T05:38:09.313Z,9.90
2018-04-07T05:40:35.754Z,12.10
2018-04-07T05:43:02.259Z,12.20
2018-04-07T05:45:28.725Z,13.50
2018-04-07T05:47:55.178Z,12.40
2018-04-07T05:50:22.419Z,7.33
2018-04-07T05:52:48.883Z,12.80
2018-04-07T05:55:15.335Z,11.67
2018-04-07T05:57:41.768Z,11.60
2018-04-07T06:00:08.278Z,13.03
2018-04-07T06:02:34.743Z,10.67
2018-04-07T06:05:01.271Z,12.43
2018-04-07T06:07:27.738Z,14.23
2018-04-07T06:09:54.201Z,11.20
2018-04-07T06:12:21.543Z,13.23
2018-04-07T06:14:48.120Z,12.67
2018-04-07T06:17:14.606Z,14.63
2018-04-07T06:19:41.048Z,11.10
2018-04-07T06:22:07.502Z,13.97
2018-04-07T06:24:33.963Z,13.37
2018-04-07T06:27:00.491Z,11.10
2018-04-07T06:29:27.130Z,13.27
2018-04-07T06:31:53.626Z,11.13
2018-04-07T06:34:20.844Z,14.43
2018-04-07T06:36:48.799Z,11.40
2018-04-07T06:39:15.315Z,13.40
2018-04-07T06:41:41.779Z,12.50
2018-04-07T06:44:08.243Z,10.53
2018-04-07T06:46:34.695Z,8.83
2018-04-07T06:49:01.931Z,12.77
2018-04-07T06:51:29.101Z,8.60
2018-04-07T06:53:55.701Z,16.53
2018-04-07T06:56:22.119Z,9.10
2018-04-07T06:58:48.686Z,12.67
2018-04-07T07:01:16.016Z,11.40
2018-04-07T07:03:42.513Z,12.73
2018-04-07T07:06:09.695Z,13.10
2018-04-07T07:08:37.019Z,11.07
2018-04-07T07:11:03.546Z,11.03
2018-04-07T07:13:30.059Z,10.70
2018-04-07T07:15:57.416Z,10.60
2018-04-07T07:18:24.816Z,12.37
2018-04-07T07:20:51.339Z,13.67
2018-04-07T07:23:17.835Z,11.90
2018-04-07T07:25:45.024Z,10.77
2018-04-07T07:28:11.865Z,11.10
2018-04-07T07:30:38.330Z,14.00
2018-04-07T07:33:04.904Z,10.63
2018-04-07T07:35:32.088Z,11.00
2018-04-07T07:37:58.552Z,14.73
2018-04-07T07:40:25.112Z,12.47
2018-04-07T07:42:52.406Z,13.60
2018-04-07T07:45:18.923Z,11.37
2018-04-07T07:47:45.397Z,9.77
2018-04-07T07:50:11.899Z,11.23
2018-04-07T07:52:38.451Z,10.30
2018-04-07T07:55:04.984Z,11.10
2018-04-07T07:57:31.471Z,11.03
2018-04-07T07:59:58.834Z,11.33
2018-04-07T08:02:25.331Z,11.47
2018-04-07T08:04:51.839Z,10.13
2018-04-07T08:07:18.343Z,13.73
2018-04-07T08:09:45.570Z,11.77
2018-04-07T08:12:12.111Z,10.27
2018-04-07T08:14:38.681Z,11.17
2018-04-07T08:17:05.210Z,8.57
2018-04-07T08:19:31.687Z,10.60
2018-04-07T08:21:58.194Z,12.00
2018-04-07T08:24:24.639Z,10.10
2018-04-07T08:26:51.158Z,10.77
2018-04-07T08:29:17.674Z,11.67
2018-04-07T08:31:45.108Z,14.07
2018-04-07T08:34:11.749Z,9.33
2018-04-07T08:36:38.988Z,10.93
2018-04-07T08:39:05.472Z,10.07
2018-04-07T08:41:31.895Z,10.10
2018-04-07T08:43:58.464Z,10.50
2018-04-07T08:46:25.005Z,9.83
2018-04-07T08:48:52.199Z,9.10
2018-04-07T08:51:18.752Z,10.50
2018-04-07T08:53:45.435Z,10.30
2018-04-07T08:56:11.923Z,11.03
2018-04-07T08:58:38.461Z,10.40
2018-04-07T09:01:05.007Z,10.77
2018-04-07T09:03:31.574Z,11.30
2018-04-07T09:05:58.097Z,9.67
2018-04-07T09:08:24.643Z,14.80
2018-04-07T09:10:52.783Z,10.10
2018-04-07T09:13:19.289Z,9.83
2018-04-07T09:15:46.694Z,8.20
2018-04-07T09:18:13.286Z,9.13
2018-04-07T09:20:40.574Z,10.83
2018-04-07T09:23:07.060Z,10.23
2018-04-07T09:25:33.582Z,9.80
2018-04-07T09:28:00.139Z,11.03
2018-04-07T09:30:27.457Z,9.20
2018-04-07T09:32:53.985Z,10.80
2018-04-07T09:35:20.566Z,12.30
2018-04-07T09:37:47.969Z,7.87
2018-04-07T09:40:14.452Z,8.43
2018-04-07T09:42:41.672Z,9.40
2018-04-07T09:45:08.460Z,8.30
2018-04-07T09:47:35.720Z,8.90
2018-04-07T09:50:02.134Z,7.17
2018-04-07T09:52:29.404Z,10.17
2018-04-07T09:54:56.055Z,7.30
2018-04-07T09:57:22.545Z,7.53
2018-04-07T09:59:49.127Z,6.97
2018-04-07T10:02:19.328Z,8.23
2018-04-07T10:04:46.542Z,8.00
2018-04-07T10:07:12.994Z,7.93
2018-04-07T10:09:40.379Z,7.80
2018-04-07T10:12:06.837Z,8.37
2018-04-07T10:14:33.437Z,7.70
2018-04-07T10:17:00.716Z,9.83
2018-04-07T10:19:27.248Z,8.13
2018-04-07T10:24:50.895Z,9.30
2018-04-07T10:27:17.419Z,8.07
2018-04-07T10:29:43.859Z,9.60
2018-04-07T10:32:10.352Z,7.80
2018-04-07T10:34:36.828Z,7.27
2018-04-07T10:37:03.276Z,8.20
2018-04-07T10:39:30.480Z,8.40
2018-04-07T10:41:56.991Z,8.50
2018-04-07T10:44:23.467Z,8.33
2018-04-07T10:46:50.061Z,8.30
2018-04-07T10:49:16.567Z,7.20
2018-04-07T10:51:43.773Z,8.37
2018-04-07T10:54:10.263Z,7.80
2018-04-07T10:56:36.744Z,7.70
2018-04-07T10:59:03.511Z,9.30
2018-04-07T11:01:30.013Z,8.30
2018-04-07T11:03:56.513Z,7.63
2018-04-07T11:06:22.959Z,8.43
2018-04-07T11:08:49.606Z,8.00
2018-04-07T11:11:16.111Z,8.37
2018-04-07T11:13:42.546Z,7.90
2018-04-07T11:16:09.871Z,9.47
2018-04-07T11:18:36.348Z,8.00
2018-04-07T11:21:02.929Z,8.90
2018-04-07T11:23:29.430Z,8.43
2018-04-07T11:25:55.920Z,7.30
2018-04-07T11:28:23.215Z,7.73
2018-04-07T11:30:50.072Z,8.87
2018-04-07T11:33:16.571Z,8.30
2018-04-07T11:35:43.167Z,9.27
2018-04-07T11:38:09.706Z,9.07
2018-04-07T11:40:36.201Z,7.67
2018-04-07T11:43:02.700Z,8.00
2018-04-07T11:45:29.894Z,7.10
2018-04-07T11:47:56.440Z,7.53
2018-04-07T11:50:22.959Z,7.70
2018-04-07T11:52:49.509Z,10.20
2018-04-07T11:55:15.955Z,8.37
2018-04-07T11:57:42.652Z,10.27
2018-04-07T12:00:09.122Z,9.63
2018-04-07T12:02:35.622Z,7.40
2018-04-07T12:05:02.084Z,8.50
2018-04-07T12:07:28.568Z,7.43
2018-04-07T12:09:55.836Z,8.90
2018-04-07T12:12:22.351Z,6.70
2018-04-07T12:14:49.623Z,8.43
2018-04-07T12:17:16.173Z,7.90
2018-04-07T12:19:42.679Z,7.87
2018-04-07T12:22:09.908Z,9.43
2018-04-07T12:24:36.480Z,7.37
2018-04-07T12:27:02.927Z,7.40
2018-04-07T12:29:29.462Z,8.37
2018-04-07T12:31:55.929Z,8.20
2018-04-07T12:34:22.487Z,9.23
2018-04-07T12:36:49.779Z,7.50
2018-04-07T12:39:16.249Z,18.17
2018-04-07T12:41:43.504Z,8.77
2018-04-07T12:44:09.967Z,8.77
2018-04-07T12:46:37.444Z,7.23
2018-04-07T12:49:04.707Z,9.47
2018-04-07T12:51:31.142Z,7.93
2018-04-07T12:53:57.731Z,7.40
2018-04-07T12:56:24.223Z,8.37
2018-04-07T12:58:50.795Z,8.00
2018-04-07T13:01:18.090Z,7.30
2018-04-07T13:03:44.544Z,8.60
2018-04-07T13:06:11.035Z,8.27
2018-04-07T13:08:38.271Z,8.00
2018-04-07T13:11:05.530Z,7.70
2018-04-07T13:13:32.043Z,7.87
2018-04-07T13:15:58.550Z,8.33
2018-04-07T13:18:25.143Z,8.47
2018-04-07T13:20:51.571Z,9.30
2018-04-07T13:23:18.759Z,10.43
2018-04-07T13:25:45.239Z,8.00
2018-04-07T13:28:11.735Z,9.33
2018-04-07T13:30:38.323Z,8.37
2018-04-07T13:33:04.796Z,9.23
2018-04-07T13:35:31.410Z,9.17
2018-04-07T13:37:58.597Z,8.70
2018-04-07T13:40:25.068Z,8.93
2018-04-07T13:42:51.595Z,8.40
2018-04-07T13:45:18.054Z,8.97
2018-04-07T13:47:45.274Z,8.80
2018-04-07T13:50:11.710Z,7.90
2018-04-07T13:52:38.969Z,8.83
2018-04-07T13:55:05.420Z,9.10
2018-04-07T13:57:32.656Z,9.20
2018-04-07T13:59:59.203Z,8.47
2018-04-07T14:02:26.395Z,8.57
2018-04-07T14:04:52.894Z,8.10
2018-04-07T14:07:20.186Z,7.33
2018-04-07T14:09:46.652Z,7.27
2018-04-07T14:12:13.085Z,8.70
2018-04-07T14:14:39.612Z,6.43
2018-04-07T14:17:06.077Z,8.97
2018-04-07T14:19:32.587Z,9.60
2018-04-07T14:21:59.071Z,8.43
2018-04-07T14:24:25.653Z,10.13
2018-04-07T14:26:52.071Z,8.00
2018-04-07T14:29:18.623Z,8.40
2018-04-07T14:31:45.052Z,8.10
2018-04-07T14:34:11.567Z,8.43
2018-04-07T14:37:11.064Z,8.37
2018-04-07T14:39:38.287Z,8.63
2018-04-07T14:42:05.626Z,11.50
2018-04-07T14:44:32.818Z,8.47
2018-04-07T14:46:59.415Z,9.27
2018-04-07T14:49:26.631Z,8.37
2018-04-07T14:51:53.143Z,8.47
2018-04-07T14:54:19.631Z,9.00
2018-04-07T14:56:46.121Z,7.97
2018-04-07T14:59:12.765Z,8.80
2018-04-07T15:01:39.276Z,8.40
2018-04-07T15:04:05.727Z,8.70
2018-04-07T15:06:32.262Z,8.23
2018-04-07T15:08:58.721Z,9.00
2018-04-07T15:11:25.402Z,7.90
2018-04-07T15:13:52.828Z,8.03
2018-04-07T15:16:19.364Z,7.70
2018-04-07T15:18:45.962Z,9.00
2018-04-07T15:21:12.444Z,6.67
2018-04-07T15:23:39.047Z,7.37
2018-04-07T15:26:05.479Z,7.70
2018-04-07T15:28:32.608Z,7.20
2018-04-07T15:30:59.292Z,7.20
2018-04-07T15:33:25.822Z,7.37
2018-04-07T15:35:52.421Z,6.80
2018-04-07T15:38:18.945Z,8.27
2018-04-07T15:40:45.655Z,7.00
2018-04-07T15:43:12.698Z,7.27
2018-04-07T15:45:40.354Z,7.50
2018-04-07T15:48:07.582Z,7.77
2018-04-07T15:50:35.108Z,6.63
2018-04-07T15:53:01.809Z,7.23
2018-04-07T15:55:29.223Z,6.93
2018-04-07T15:57:55.726Z,7.63
2018-04-07T16:00:22.356Z,7.87
2018-04-07T16:02:48.866Z,8.63
2018-04-07T16:05:16.232Z,8.67
2018-04-07T16:07:43.544Z,8.90
2018-04-07T16:10:10.082Z,7.60
2018-04-07T16:12:36.638Z,6.73
2018-04-07T16:15:04.064Z,8.50
2018-04-07T16:17:30.642Z,8.07
2018-04-07T16:19:57.957Z,8.27
2018-04-07T16:22:24.490Z,8.00
2018-04-07T16:24:50.958Z,8.90
2018-04-07T16:27:17.445Z,8.30
2018-04-07T16:29:43.964Z,9.23
2018-04-07T16:32:10.443Z,8.97
2018-04-07T16:34:36.916Z,8.43
2018-04-07T16:37:04.312Z,9.07
2018-04-07T16:39:30.759Z,9.10
2018-04-07T16:41:57.267Z,9.70
2018-04-07T16:44:23.783Z,10.00
2018-04-07T16:46:50.277Z,9.63
2018-04-07T16:49:16.765Z,10.73
2018-04-07T16:51:43.224Z,10.03
2018-04-07T16:54:09.848Z,11.73
2018-04-07T16:56:36.266Z,11.73
2018-04-07T16:59:02.740Z,11.43
2018-04-07T17:01:29.267Z,10.37
2018-04-07T17:03:56.250Z,11.37
2018-04-07T17:06:22.820Z,12.37
2018-04-07T17:08:50.341Z,11.60
2018-04-07T17:11:17.098Z,10.93
2018-04-07T17:13:43.794Z,9.97
2018-04-07T17:16:11.158Z,10.90
2018-04-07T17:18:37.705Z,10.63
2018-04-07T17:21:05.635Z,9.77
2018-04-07T17:23:32.360Z,9.50
2018-04-07T17:25:58.942Z,10.20
2018-04-07T17:28:26.262Z,10.57
2018-04-07T17:30:53.230Z,10.87
2018-04-07T17:33:20.764Z,10.83
2018-04-07T17:35:47.556Z,10.43
2018-04-07T17:38:14.822Z,10.40
2018-04-07T17:40:42.854Z,9.47
2018-04-07T17:43:10.306Z,12.03
2018-04-07T17:45:37.643Z,11.30
2018-04-07T17:48:04.325Z,12.37
2018-04-07T17:50:32.674Z,10.60
2018-04-07T17:53:00.318Z,10.93
2018-04-07T17:55:27.673Z,12.37
2018-04-07T17:57:54.703Z,12.37
2018-04-07T18:00:21.339Z,11.10
2018-04-07T18:02:47.900Z,15.00
2018-04-07T18:05:14.958Z,12.60
2018-04-07T18:07:41.668Z,11.03
2018-04-07T18:10:08.124Z,12.63
2018-04-07T18:12:35.004Z,14.23
2018-04-07T18:15:02.669Z,11.83
2018-04-07T18:17:30.111Z,14.00
2018-04-07T18:19:56.605Z,11.10
2018-04-07T18:22:23.168Z,12.03
2018-04-07T18:24:50.935Z,13.20
2018-04-07T18:27:17.432Z,12.03
2018-04-07T18:29:43.980Z,12.87
2018-04-07T18:32:10.771Z,12.30
2018-04-07T18:34:38.112Z,13.40
2018-04-07T18:37:04.949Z,16.73
2018-04-07T18:39:31.748Z,13.10
2018-04-07T18:41:58.269Z,13.27
2018-04-07T18:44:24.809Z,14.83
2018-04-07T18:46:51.550Z,15.57
2018-04-07T18:49:18.116Z,14.03
2018-04-07T18:51:44.915Z,13.13
2018-04-07T18:54:11.963Z,14.70
2018-04-07T18:56:38.745Z,13.57
2018-04-07T18:59:05.324Z,13.90
2018-04-07T19:01:32.539Z,18.17
2018-04-07T19:03:59.044Z,15.57
2018-04-07T19:06:25.511Z,15.77
2018-04-07T19:08:52.035Z,15.30
2018-04-07T19:11:18.605Z,13.60
2018-04-07T19:13:45.377Z,14.07
2018-04-07T19:16:11.860Z,15.70
2018-04-07T19:18:38.499Z,15.57
2018-04-07T19:21:04.975Z,16.20
2018-04-07T19:23:31.548Z,28.20
2018-04-07T19:25:58.098Z,18.73
2018-04-07T19:28:24.569Z,19.10
2018-04-07T19:30:51.862Z,19.73
2018-04-07T19:33:18.350Z,18.50
2018-04-07T19:35:45.573Z,19.63
2018-04-07T19:38:12.102Z,17.43
2018-04-07T19:40:38.619Z,29.07
2018-04-07T19:43:05.144Z,23.47
2018-04-07T19:45:31.848Z,17.87
2018-04-07T19:47:59.335Z,20.87
2018-04-07T19:50:25.884Z,17.60
2018-04-07T19:52:52.398Z,16.00
2018-04-07T19:55:19.024Z,13.80
2018-04-07T19:57:45.635Z,14.33
2018-04-07T20:00:12.151Z,17.43
2018-04-07T20:02:38.753Z,32.23
2018-04-07T20:05:05.256Z,18.40
2018-04-07T20:07:32.503Z,14.97
2018-04-07T20:09:59.771Z,19.60
2018-04-07T20:12:27.466Z,14.97
2018-04-07T20:14:53.964Z,17.67
2018-04-07T20:17:21.272Z,14.83
2018-04-07T20:19:47.740Z,12.57
2018-04-07T20:22:15.058Z,16.57
2018-04-07T20:24:41.599Z,12.63
2018-04-07T20:27:08.290Z,12.90
2018-04-07T20:29:34.899Z,14.20
2018-04-07T20:32:02.191Z,13.10
2018-04-07T20:34:29.299Z,18.90
2018-04-07T20:36:56.519Z,19.33
2018-04-07T20:39:23.035Z,13.90
2018-04-07T20:41:49.526Z,15.30
2018-04-07T20:44:28.952Z,16.50
2018-04-07T20:46:55.914Z,13.90
2018-04-07T20:49:22.567Z,17.43
2018-04-07T20:51:49.223Z,15.00
2018-04-07T20:54:15.672Z,14.40
2018-04-07T20:56:42.193Z,14.40
2018-04-07T20:59:08.686Z,16.53
2018-04-07T21:01:35.918Z,16.97
2018-04-07T21:04:02.387Z,26.13
2018-04-07T21:06:29.684Z,18.13
2018-04-07T21:08:56.374Z,15.90
2018-04-07T21:11:22.940Z,15.63
2018-04-07T21:13:49.814Z,14.80
2018-04-07T21:16:16.568Z,17.03
2018-04-07T21:18:43.051Z,19.17
2018-04-07T21:21:09.485Z,18.43
2018-04-07T21:23:36.003Z,13.67
2018-04-07T21:26:02.491Z,17.87
2018-04-07T21:28:29.012Z,13.80
2018-04-07T21:30:55.513Z,12.53
2018-04-07T21:33:22.128Z,12.27
2018-04-07T21:35:49.399Z,12.40
2018-04-07T21:38:15.951Z,12.80
2018-04-07T21:40:42.407Z,13.57
2018-04-07T21:43:08.899Z,12.90
2018-04-07T21:45:35.428Z,13.77
2018-04-07T21:48:02.748Z,11.67
2018-04-07T21:50:29.214Z,12.17
2018-04-07T21:52:56.426Z,14.37
2018-04-07T21:55:23.676Z,13.50
2018-04-07T21:57:50.223Z,14.67
2018-04-07T22:00:16.763Z,15.10
2018-04-07T22:02:43.355Z,13.40
2018-04-07T22:05:09.854Z,15.80
2018-04-07T22:07:37.061Z,13.90
2018-04-07T22:10:03.563Z,12.63
2018-04-07T22:12:30.052Z,14.73
2018-04-07T22:14:56.679Z,16.27
2018-04-07T22:17:23.154Z,14.40
2018-04-07T22:19:49.724Z,14.13
2018-04-07T22:22:16.154Z,13.27
2018-04-07T22:24:42.731Z,14.23
2018-04-07T22:27:09.221Z,17.47
2018-04-07T22:29:35.654Z,16.30
2018-04-07T22:32:02.154Z,15.20
2018-04-07T22:34:29.374Z,13.93
2018-04-07T22:36:55.874Z,15.47
2018-04-07T22:39:22.345Z,14.07
2018-04-07T22:41:48.923Z,15.10
2018-04-07T22:44:15.342Z,15.23
2018-04-07T22:46:42.586Z,15.73
2018-04-07T22:49:09.816Z,13.83
2018-04-07T22:51:36.379Z,13.93
2018-04-07T22:54:03.588Z,15.80
2018-04-07T22:56:30.042Z,15.73
2018-04-07T22:58:56.512Z,12.87
2018-04-07T23:01:22.961Z,14.20
2018-04-07T23:03:49.661Z,14.73
2018-04-07T23:06:16.855Z,14.73
2018-04-07T23:08:43.386Z,14.43
2018-04-07T23:11:09.954Z,12.50
2018-04-07T23:13:36.486Z,14.70
2018-04-07T23:16:03.055Z,13.30
2018-04-07T23:18:30.442Z,13.83
2018-04-07T23:20:56.946Z,14.63
2018-04-07T23:23:24.158Z,17.03
2018-04-07T23:25:50.691Z,16.67
2018-04-07T23:28:17.178Z,15.07
2018-04-07T23:30:44.423Z,17.10
2018-04-07T23:33:11.669Z,16.40
2018-04-07T23:35:38.927Z,17.67
2018-04-07T23:38:06.120Z,15.20
2018-04-07T23:40:32.603Z,14.63
2018-04-07T23:42:59.779Z,15.67
2018-04-07T23:45:26.255Z,16.10
2018-04-07T23:47:52.804Z,13.73
2018-04-07T23:50:19.299Z,14.43
2018-04-07T23:52:45.903Z,15.80
2018-04-07T23:55:13.126Z,12.70
2018-04-07T23:57:39.621Z,17.50
